Yokosuka Fwf, Japan

11:04 PM JST on October 21, 2014 (GMT +0900)
Totsukaku-Kashiodai | Change Station
CLOSE
Current Station
Personal Weather Station
Location: 横浜市, 神奈川県
Elevation: 112 ft
Nearby Weather Stations

Elev 112 ft 35.42 °N, 139.56 °E | Updated 11 seconds ago

Partly Cloudy
Partly Cloudy
72.1 °F
Feels Like 72 °F
N
9.6
Wind Variable Wind from SW
Gusts 15.0 mph

Today
High -- | Low -- °F
--% Chance of Precip.
Yesterday
High -- | Low -- °F
Precip. -- in
5:52 AM 4:59 PM
Waning Crescent, 5% visible
Pressure 29.89 in
Visibility 6.2 miles
Clouds Few 1500 ft
Heat Index 72 °F
Dew Point 66 °F
Humidity 81%
Rainfall 0.05 in
Snow Depth Not available.
UV 0 out of 12
Pollen Not available.
Air Quality Not available.
Flu Activity Not available.
METAR RJTT 211330Z 19008KT 9999 FEW015 BKN/// 21/18 Q1012 NOSIG RMK 1CU015 A2989

More Conditions Fewer Conditions

Pressure 29.89 in
Visibility 6.2 miles
Clouds Few 1500 ft
Heat Index 72 °F
Dew Point 66 °F
Humidity 81%
Rainfall 0.05 in
Snow Depth Not available.
UV 0 out of 12
Pollen Not available.
Air Quality Not available.
Flu Activity Not available.
METAR RJTT 211330Z 19008KT 9999 FEW015 BKN/// 21/18 Q1012 NOSIG RMK 1CU015 A2989

More Conditions Fewer Conditions

10-Day Weather Forecast

Almanac

Astronomy

Oct. 21, 2014 Rise Set
Actual Time 5:52 AM JST 4:59 PM JST
Civil Twilight 5:26 AM JST 5:25 PM JST
Nautical Twilight 4:56 AM JST 5:54 PM JST
Astronomical Twilight 4:27 AM JST 6:24 PM JST
Moon 3:06 AM JST 3:28 PM JST
Length of Visible Light 11h 58m
Length of Day
11h 07m
Tomorrow will be 2m 5s shorter.
Waning Crescent, 5% of the Moon is Illuminated
Today
Waning Crescent
Oct 23
New
Oct 30
First Quarter
Nov 6
Full
Nov 14
Last Quarter

Yesterday's Extremes

Country Highs Country Lows

Community

WunderPhotos

Upload Photos

1,763,666 photos uploaded!

Nearby

Snow Depth

Not available.

Earthquake Activity

City Distance Mag. Time & Date
No recent earthquake activity has been reported nearby.
Minimum magnitude displayed is 2.5.

Coastal Water Temperatures

Place Temperature
No Stations Reporting

Nearby Weather Stations